createdAt,value
2023-05-18T00:00:48.173Z,10.54
2023-05-18T00:01:54.658Z,10.53
2023-05-18T00:02:58.443Z,10.53
2023-05-18T00:04:02.325Z,10.51
2023-05-18T00:05:05.679Z,10.47
2023-05-18T00:06:08.942Z,10.52
2023-05-18T00:07:11.805Z,10.49
2023-05-18T00:08:14.686Z,10.65
2023-05-18T00:09:17.534Z,10.64
2023-05-18T00:10:20.639Z,10.70
2023-05-18T00:11:23.767Z,10.67
2023-05-18T00:12:26.787Z,10.69
2023-05-18T00:13:30.116Z,10.65
2023-05-18T00:14:33.115Z,10.69
2023-05-18T00:15:36.030Z,10.71
2023-05-18T00:16:38.977Z,10.74
2023-05-18T00:17:42.878Z,10.67
2023-05-18T00:18:46.456Z,10.62
2023-05-18T00:19:50.464Z,10.61
2023-05-18T00:20:59.268Z,10.71
2023-05-18T00:22:02.782Z,10.68
2023-05-18T00:23:06.547Z,10.63
2023-05-18T00:24:13.350Z,10.58
2023-05-18T00:25:16.540Z,10.65
2023-05-18T00:26:19.502Z,10.73
2023-05-18T00:27:22.382Z,10.71
2023-05-18T00:28:25.962Z,10.67
2023-05-18T00:29:28.857Z,10.70
2023-05-18T00:30:31.692Z,10.63
2023-05-18T00:31:39.574Z,10.66
2023-05-18T00:32:42.475Z,10.69
2023-05-18T00:33:48.328Z,10.69
2023-05-18T00:34:51.285Z,10.65
2023-05-18T00:35:54.174Z,10.58
2023-05-18T00:36:57.072Z,10.66
2023-05-18T00:38:00.013Z,10.67
2023-05-18T00:39:04.764Z,10.63
2023-05-18T00:40:09.286Z,10.65
2023-05-18T00:41:12.322Z,10.67
2023-05-18T00:42:15.114Z,10.73
2023-05-18T00:43:18.246Z,10.64
2023-05-18T00:44:21.466Z,10.63
2023-05-18T00:45:24.522Z,10.59
2023-05-18T00:46:28.765Z,10.67
2023-05-18T00:47:32.023Z,10.64
2023-05-18T00:48:34.951Z,10.63
2023-05-18T00:49:37.865Z,10.58
2023-05-18T00:50:41.130Z,10.65
2023-05-18T00:51:44.721Z,10.63
2023-05-18T00:52:47.779Z,10.61
2023-05-18T00:53:53.010Z,10.70
2023-05-18T00:54:58.844Z,10.69
2023-05-18T00:56:01.801Z,10.77
2023-05-18T00:57:06.663Z,10.70
2023-05-18T00:58:09.961Z,10.72
2023-05-18T00:59:13.024Z,10.68
2023-05-18T01:00:16.557Z,10.66
2023-05-18T01:01:20.975Z,10.64
2023-05-18T01:02:24.009Z,10.72
2023-05-18T01:03:30.624Z,10.65
2023-05-18T01:04:34.339Z,10.73
2023-05-18T01:05:37.471Z,10.71
2023-05-18T01:06:41.569Z,10.82
2023-05-18T01:07:44.842Z,10.76
2023-05-18T01:08:48.748Z,10.66
2023-05-18T01:09:51.694Z,10.70
2023-05-18T01:11:22.218Z,10.80
2023-05-18T01:12:56.946Z,10.72
2023-05-18T01:14:10.144Z,10.78
2023-05-18T01:15:19.762Z,10.74
2023-05-18T01:16:28.401Z,10.78
2023-05-18T01:17:47.716Z,10.68
2023-05-18T01:19:01.321Z,10.63
2023-05-18T01:20:18.666Z,10.62
2023-05-18T01:21:59.155Z,10.66
2023-05-18T01:23:30.931Z,10.85
2023-05-18T01:24:45.840Z,10.81
2023-05-18T01:25:54.791Z,10.84
2023-05-18T01:27:01.221Z,10.79
2023-05-18T01:28:08.842Z,10.88
2023-05-18T01:29:14.314Z,10.74
2023-05-18T01:30:18.509Z,10.68
2023-05-18T01:31:21.551Z,10.80
2023-05-18T01:32:24.554Z,10.83
2023-05-18T01:33:27.408Z,10.83
2023-05-18T01:34:30.242Z,10.76
2023-05-18T01:35:33.118Z,10.72
2023-05-18T01:36:36.068Z,10.73
2023-05-18T01:37:39.010Z,10.77
2023-05-18T01:38:44.328Z,10.79
2023-05-18T01:39:47.606Z,10.80
2023-05-18T01:41:02.104Z,10.82
2023-05-18T01:42:12.479Z,10.85
2023-05-18T01:43:19.410Z,10.88
2023-05-18T01:44:31.383Z,10.75
2023-05-18T01:45:37.142Z,10.70
2023-05-18T01:46:58.740Z,10.84
2023-05-18T01:48:03.063Z,10.90
2023-05-18T01:49:21.584Z,10.91
2023-05-18T01:50:38.155Z,10.81
2023-05-18T01:51:46.377Z,10.78
2023-05-18T01:53:05.115Z,10.80
2023-05-18T01:54:10.167Z,10.72
2023-05-18T01:55:14.717Z,10.68
2023-05-18T01:56:18.357Z,10.72
2023-05-18T01:57:27.632Z,10.90
2023-05-18T01:58:30.677Z,10.89
2023-05-18T01:59:34.187Z,10.88
2023-05-18T02:00:37.207Z,10.85
2023-05-18T02:01:40.160Z,10.84
2023-05-18T02:02:43.526Z,10.90
2023-05-18T02:03:46.966Z,10.90
2023-05-18T02:04:49.953Z,10.76
2023-05-18T02:05:52.803Z,10.72
2023-05-18T02:06:56.339Z,10.79
2023-05-18T02:07:59.250Z,10.73
2023-05-18T02:09:02.203Z,10.73
2023-05-18T02:10:06.595Z,10.81
2023-05-18T02:11:10.055Z,10.76
2023-05-18T02:12:13.094Z,10.70
2023-05-18T02:13:15.907Z,10.67
2023-05-18T02:14:18.875Z,10.70
2023-05-18T02:15:22.407Z,10.69
2023-05-18T02:16:25.511Z,10.69
2023-05-18T02:17:29.033Z,10.62
2023-05-18T02:18:34.410Z,10.61
2023-05-18T02:19:38.414Z,10.62
2023-05-18T02:20:41.363Z,10.62
2023-05-18T02:21:44.963Z,10.64
2023-05-18T02:22:48.043Z,10.61
2023-05-18T02:23:50.931Z,10.66
2023-05-18T02:24:54.228Z,10.78
2023-05-18T02:25:57.220Z,10.67
2023-05-18T02:27:00.220Z,10.76
2023-05-18T02:28:03.176Z,10.71
2023-05-18T02:29:06.812Z,10.79
2023-05-18T02:30:10.116Z,10.73
2023-05-18T02:31:13.293Z,10.80
2023-05-18T02:32:16.213Z,10.84
2023-05-18T02:33:19.907Z,10.77
2023-05-18T02:34:25.228Z,10.66
2023-05-18T02:35:28.568Z,10.60
2023-05-18T02:36:37.582Z,10.61
2023-05-18T02:37:43.945Z,10.69
2023-05-18T02:38:47.039Z,10.72
2023-05-18T02:39:50.388Z,10.67
2023-05-18T02:40:53.260Z,10.67
2023-05-18T02:41:56.228Z,10.73
2023-05-18T02:42:59.188Z,10.70
2023-05-18T02:44:03.533Z,10.69
2023-05-18T02:45:07.419Z,10.70
2023-05-18T02:46:10.325Z,10.64
2023-05-18T02:47:13.237Z,10.63
2023-05-18T02:48:16.119Z,10.57
2023-05-18T02:49:19.022Z,10.58
2023-05-18T02:50:21.776Z,10.51
2023-05-18T02:51:25.409Z,10.61
2023-05-18T02:52:29.311Z,10.61
2023-05-18T02:53:32.287Z,10.62
2023-05-18T02:54:35.127Z,10.59
2023-05-18T02:55:38.793Z,10.51
2023-05-18T02:56:42.021Z,10.58
2023-05-18T02:57:47.259Z,10.57
2023-05-18T02:58:50.818Z,10.65
2023-05-18T02:59:53.792Z,10.62
2023-05-18T03:00:56.953Z,10.59
2023-05-18T03:01:59.954Z,10.63
2023-05-18T03:03:03.167Z,10.63
2023-05-18T03:04:06.280Z,10.65
2023-05-18T03:05:09.922Z,10.55
2023-05-18T03:06:14.343Z,10.47
2023-05-18T03:07:17.136Z,10.46
2023-05-18T03:08:23.620Z,10.53
2023-05-18T03:09:26.736Z,10.56
2023-05-18T03:10:29.742Z,10.63
2023-05-18T03:11:32.886Z,10.56
2023-05-18T03:12:35.767Z,10.62
2023-05-18T03:13:38.700Z,10.60
2023-05-18T03:14:41.780Z,10.52
2023-05-18T03:15:45.806Z,10.45
2023-05-18T03:16:48.808Z,10.55
2023-05-18T03:17:52.116Z,10.57
2023-05-18T03:18:56.116Z,10.51
2023-05-18T03:19:58.988Z,10.57
2023-05-18T03:21:02.372Z,10.61
2023-05-18T03:22:06.142Z,10.49
2023-05-18T03:23:09.520Z,10.55
2023-05-18T03:24:15.136Z,10.57
2023-05-18T03:25:18.091Z,10.52
2023-05-18T03:26:20.922Z,10.50
2023-05-18T03:27:27.018Z,10.45
2023-05-18T03:28:31.200Z,10.54
2023-05-18T03:29:35.135Z,10.45
2023-05-18T03:30:37.996Z,10.40
2023-05-18T03:31:41.222Z,10.44
2023-05-18T03:32:44.129Z,10.48
2023-05-18T03:33:46.949Z,10.42
2023-05-18T03:34:51.368Z,10.45
2023-05-18T03:35:54.850Z,10.47
2023-05-18T03:36:58.353Z,10.51
2023-05-18T03:38:01.219Z,10.45
2023-05-18T03:39:06.397Z,10.39
2023-05-18T03:40:12.261Z,10.34
2023-05-18T03:41:15.097Z,10.28
2023-05-18T03:42:18.188Z,10.30
2023-05-18T03:43:21.308Z,10.32
2023-05-18T03:44:24.083Z,10.31
2023-05-18T03:45:27.097Z,10.29
2023-05-18T03:46:30.037Z,10.29
2023-05-18T03:47:33.222Z,10.32
2023-05-18T03:48:36.262Z,10.36
2023-05-18T03:49:39.128Z,10.39
2023-05-18T03:50:42.022Z,10.34
2023-05-18T03:51:44.898Z,10.36
2023-05-18T03:52:48.265Z,10.37
2023-05-18T03:53:51.236Z,10.42
2023-05-18T03:54:54.208Z,10.37
2023-05-18T03:55:57.197Z,10.38
2023-05-18T03:57:00.277Z,10.38
2023-05-18T03:58:03.650Z,10.30
2023-05-18T03:59:06.876Z,10.29
2023-05-18T04:00:12.847Z,10.29
2023-05-18T04:01:19.045Z,10.34
2023-05-18T04:02:22.457Z,10.36
2023-05-18T04:03:27.217Z,10.42
2023-05-18T04:04:31.159Z,10.41
2023-05-18T04:05:34.052Z,10.49
2023-05-18T04:06:37.529Z,10.41
2023-05-18T04:07:44.398Z,10.34
2023-05-18T04:08:47.240Z,10.32
2023-05-18T04:09:52.425Z,10.40
2023-05-18T04:10:55.285Z,10.60
2023-05-18T04:11:58.470Z,10.60
2023-05-18T04:13:01.707Z,10.46
2023-05-18T04:14:04.821Z,10.51
2023-05-18T04:15:08.395Z,10.51
2023-05-18T04:16:13.684Z,10.54
2023-05-18T04:17:23.394Z,10.53
2023-05-18T04:18:30.490Z,10.47
2023-05-18T04:19:38.055Z,10.45
2023-05-18T04:20:42.584Z,10.47
2023-05-18T04:21:47.647Z,10.53
2023-05-18T04:22:50.980Z,10.44
2023-05-18T04:23:53.854Z,10.34
2023-05-18T04:24:57.605Z,10.34
2023-05-18T04:26:00.856Z,10.33
2023-05-18T04:27:04.094Z,10.31
2023-05-18T04:28:07.002Z,10.40
2023-05-18T04:29:11.106Z,10.39
2023-05-18T04:30:14.366Z,10.48
2023-05-18T04:31:18.483Z,10.54
2023-05-18T04:32:21.471Z,10.45
2023-05-18T04:33:24.616Z,10.35
2023-05-18T04:34:28.743Z,10.32
2023-05-18T04:35:32.307Z,10.39
2023-05-18T04:36:35.484Z,10.40
2023-05-18T04:37:41.649Z,10.36
2023-05-18T04:38:44.574Z,10.46
2023-05-18T04:39:47.655Z,10.50
2023-05-18T04:40:51.395Z,10.44
2023-05-18T04:42:00.765Z,10.53
2023-05-18T04:43:04.371Z,10.51
2023-05-18T04:44:07.724Z,10.57
2023-05-18T04:45:13.068Z,10.45
2023-05-18T04:46:17.167Z,10.44
2023-05-18T04:47:22.569Z,10.36
2023-05-18T04:48:26.411Z,10.39
2023-05-18T04:49:29.525Z,10.38
2023-05-18T04:50:32.644Z,10.40
2023-05-18T04:51:37.115Z,10.45
2023-05-18T04:52:42.151Z,10.39
2023-05-18T04:53:46.600Z,10.41
2023-05-18T04:54:49.485Z,10.49
2023-05-18T04:55:54.694Z,10.44
2023-05-18T04:56:58.527Z,10.48
2023-05-18T04:58:01.820Z,10.36
2023-05-18T04:59:04.688Z,10.39
2023-05-18T05:00:10.044Z,10.41
2023-05-18T05:01:15.653Z,10.42
2023-05-18T05:02:18.845Z,10.50
2023-05-18T05:03:21.981Z,10.49
2023-05-18T05:04:24.926Z,10.51
2023-05-18T05:05:28.049Z,10.46
2023-05-18T05:06:31.439Z,10.48
2023-05-18T05:07:34.313Z,10.49
2023-05-18T05:08:37.959Z,10.55
2023-05-18T05:09:40.868Z,10.56
2023-05-18T05:10:43.808Z,10.53
2023-05-18T05:11:47.078Z,10.47
2023-05-18T05:12:51.190Z,10.51
2023-05-18T05:13:54.146Z,10.52
2023-05-18T05:14:57.040Z,10.44
2023-05-18T05:16:00.163Z,10.45
2023-05-18T05:17:03.004Z,10.54
2023-05-18T05:18:06.058Z,10.51
2023-05-18T05:19:09.154Z,10.53
2023-05-18T05:20:12.206Z,10.45
2023-05-18T05:21:15.050Z,10.46
2023-05-18T05:22:20.040Z,10.41
2023-05-18T05:23:22.889Z,10.44
2023-05-18T05:24:25.825Z,10.56
2023-05-18T05:25:29.039Z,10.55
2023-05-18T05:26:32.255Z,10.47
2023-05-18T05:27:35.489Z,10.54
2023-05-18T05:28:38.438Z,10.58
2023-05-18T05:29:41.436Z,10.49
2023-05-18T05:30:44.372Z,10.57
2023-05-18T05:31:47.332Z,10.49
2023-05-18T05:32:50.267Z,10.45
2023-05-18T05:33:53.200Z,10.41
2023-05-18T05:34:56.074Z,10.46
2023-05-18T05:35:59.072Z,10.44
2023-05-18T05:37:01.906Z,10.51
2023-05-18T05:38:04.826Z,10.54
2023-05-18T05:39:08.044Z,10.48
2023-05-18T05:40:11.560Z,10.47
2023-05-18T05:41:14.736Z,10.61
2023-05-18T05:42:17.660Z,10.66
2023-05-18T05:43:20.557Z,10.64
2023-05-18T05:44:24.284Z,10.63
2023-05-18T05:45:29.059Z,10.66
2023-05-18T05:46:32.049Z,10.65
2023-05-18T05:47:35.013Z,10.65
2023-05-18T05:48:38.188Z,10.54
2023-05-18T05:49:41.060Z,10.49
2023-05-18T05:50:43.946Z,10.51
2023-05-18T05:51:46.944Z,10.53
2023-05-18T05:52:50.132Z,10.54
2023-05-18T05:53:52.971Z,10.56
2023-05-18T05:54:56.402Z,10.61
2023-05-18T05:55:59.240Z,10.60
2023-05-18T05:57:02.127Z,10.61
2023-05-18T05:58:05.656Z,10.62
2023-05-18T05:59:08.538Z,10.65
2023-05-18T06:00:13.136Z,10.62
2023-05-18T06:01:16.236Z,10.65
2023-05-18T06:02:19.428Z,10.69
2023-05-18T06:03:22.416Z,10.61
2023-05-18T06:04:25.774Z,10.63
2023-05-18T06:05:29.084Z,10.58
2023-05-18T06:06:32.325Z,10.68
2023-05-18T06:07:36.085Z,10.67
2023-05-18T06:08:38.973Z,10.60
2023-05-18T06:09:41.982Z,10.55
2023-05-18T06:10:44.888Z,10.69
2023-05-18T06:11:47.867Z,10.70
2023-05-18T06:12:50.702Z,10.60
2023-05-18T06:13:53.664Z,10.59
2023-05-18T06:14:59.528Z,10.65
2023-05-18T06:16:02.666Z,10.57
2023-05-18T06:17:06.087Z,10.62
2023-05-18T06:18:10.415Z,10.67
2023-05-18T06:19:15.152Z,10.72
2023-05-18T06:20:18.141Z,10.66
2023-05-18T06:21:21.209Z,10.67
2023-05-18T06:22:24.706Z,10.72
2023-05-18T06:23:27.751Z,10.77
2023-05-18T06:24:30.712Z,10.70
2023-05-18T06:25:33.627Z,10.75
2023-05-18T06:26:36.486Z,10.78
2023-05-18T06:27:39.398Z,10.76
2023-05-18T06:28:42.276Z,10.78
2023-05-18T06:29:45.419Z,10.83
2023-05-18T06:30:48.369Z,10.75
2023-05-18T06:31:51.458Z,10.70
2023-05-18T06:32:54.576Z,10.69
2023-05-18T06:33:57.675Z,10.73
2023-05-18T06:35:00.992Z,10.80
2023-05-18T06:36:04.050Z,10.82
2023-05-18T06:37:06.913Z,10.88
2023-05-18T06:38:09.688Z,10.81
2023-05-18T06:39:12.450Z,10.91
2023-05-18T06:40:15.354Z,10.97
2023-05-18T06:41:18.277Z,11.01
2023-05-18T06:42:21.415Z,11.01
2023-05-18T06:43:27.110Z,10.96
2023-05-18T06:44:30.384Z,10.89
2023-05-18T06:45:36.129Z,10.92
2023-05-18T06:46:40.263Z,10.94
2023-05-18T06:47:43.394Z,10.98
2023-05-18T06:48:47.365Z,10.95
2023-05-18T06:49:50.276Z,10.86
2023-05-18T06:50:53.328Z,10.84
2023-05-18T06:51:56.392Z,10.84
2023-05-18T06:52:59.188Z,10.78
2023-05-18T06:54:02.638Z,10.80
2023-05-18T06:55:06.203Z,10.87
2023-05-18T06:56:09.374Z,10.90
2023-05-18T06:57:12.640Z,10.90
2023-05-18T06:58:15.674Z,10.91
2023-05-18T06:59:18.628Z,10.86
2023-05-18T07:00:21.625Z,10.83
2023-05-18T07:01:25.219Z,10.92
2023-05-18T07:02:28.904Z,11.02
2023-05-18T07:03:32.862Z,11.00
2023-05-18T07:04:36.039Z,10.96
2023-05-18T07:05:39.846Z,10.99
2023-05-18T07:06:43.005Z,10.99
2023-05-18T07:07:45.951Z,10.91
2023-05-18T07:08:49.024Z,10.84
2023-05-18T07:09:52.087Z,10.83
2023-05-18T07:10:58.251Z,10.97
2023-05-18T07:12:01.246Z,10.99
2023-05-18T07:13:04.185Z,11.03
2023-05-18T07:14:07.240Z,10.98
2023-05-18T07:15:12.032Z,10.91
2023-05-18T07:16:14.992Z,10.87
2023-05-18T07:17:18.013Z,10.86
2023-05-18T07:18:20.840Z,11.00
2023-05-18T07:19:23.790Z,10.99
2023-05-18T07:20:27.134Z,10.99
2023-05-18T07:21:30.181Z,11.00
2023-05-18T07:22:33.880Z,11.08
2023-05-18T07:23:36.747Z,11.05
2023-05-18T07:24:39.762Z,11.12
2023-05-18T07:25:42.883Z,11.17
2023-05-18T07:26:45.832Z,11.08
2023-05-18T07:27:48.727Z,11.01
2023-05-18T07:28:51.894Z,10.96
2023-05-18T07:29:54.838Z,10.91
2023-05-18T07:30:57.766Z,11.00
2023-05-18T07:32:03.354Z,11.06
2023-05-18T07:33:06.373Z,11.03
2023-05-18T07:34:09.419Z,11.02
2023-05-18T07:35:12.497Z,11.09
2023-05-18T07:36:15.738Z,11.10
2023-05-18T07:37:18.602Z,11.12
2023-05-18T07:38:21.899Z,11.25
2023-05-18T07:39:29.042Z,11.24
2023-05-18T07:40:32.059Z,11.26
2023-05-18T07:41:35.123Z,11.21
2023-05-18T07:42:39.694Z,11.13
2023-05-18T07:43:42.636Z,11.14
2023-05-18T07:44:45.564Z,11.17
2023-05-18T07:45:48.441Z,11.26
2023-05-18T07:46:51.574Z,11.27
2023-05-18T07:47:54.697Z,11.35
2023-05-18T07:48:57.614Z,11.31
2023-05-18T07:50:03.098Z,11.33
2023-05-18T07:51:06.160Z,11.34
2023-05-18T07:52:09.000Z,11.38
2023-05-18T07:53:11.925Z,11.33
2023-05-18T07:54:15.052Z,11.32
2023-05-18T07:55:18.000Z,11.27
2023-05-18T07:56:20.902Z,11.25
2023-05-18T07:57:24.932Z,11.28
2023-05-18T07:58:27.672Z,11.33
2023-05-18T07:59:30.814Z,11.29
2023-05-18T08:00:34.455Z,11.30
2023-05-18T08:01:38.562Z,11.35
2023-05-18T08:02:41.626Z,11.35
2023-05-18T08:03:44.686Z,11.44
2023-05-18T08:04:48.731Z,11.40
2023-05-18T08:05:51.602Z,11.36
2023-05-18T08:06:55.726Z,11.42
2023-05-18T08:07:58.796Z,11.40
2023-05-18T08:09:02.793Z,11.35
2023-05-18T08:10:06.359Z,11.39
2023-05-18T08:11:09.202Z,11.42
2023-05-18T08:12:12.149Z,11.43
2023-05-18T08:13:14.924Z,11.36
2023-05-18T08:14:17.978Z,11.42
2023-05-18T08:15:21.155Z,11.37
2023-05-18T08:16:24.043Z,11.37
2023-05-18T08:17:27.027Z,11.40
2023-05-18T08:18:29.959Z,11.37
2023-05-18T08:19:32.794Z,11.35
2023-05-18T08:20:36.344Z,11.39
2023-05-18T08:21:39.285Z,11.43
2023-05-18T08:22:42.399Z,11.43
2023-05-18T08:23:45.321Z,11.44
2023-05-18T08:24:48.560Z,11.55
2023-05-18T08:25:51.285Z,11.56
2023-05-18T08:26:54.194Z,11.68
2023-05-18T08:27:57.201Z,11.72
2023-05-18T08:29:00.145Z,11.63
2023-05-18T08:30:03.171Z,11.62
2023-05-18T08:31:06.487Z,11.73
2023-05-18T08:32:09.515Z,11.77
2023-05-18T08:33:12.362Z,11.72
2023-05-18T08:34:15.219Z,11.76
2023-05-18T08:35:18.117Z,11.77
2023-05-18T08:36:21.259Z,11.82
2023-05-18T08:37:29.728Z,11.83
2023-05-18T08:38:33.109Z,11.91
2023-05-18T08:39:37.642Z,12.01
2023-05-18T08:41:05.622Z,12.04
2023-05-18T08:42:20.419Z,12.06
2023-05-18T08:43:33.611Z,12.02
2023-05-18T08:45:13.435Z,12.02
2023-05-18T08:46:28.731Z,12.01
2023-05-18T08:47:32.583Z,12.00
2023-05-18T08:48:38.001Z,12.04
2023-05-18T08:49:42.728Z,12.20
2023-05-18T08:50:49.853Z,12.21
2023-05-18T08:51:57.511Z,12.27
2023-05-18T08:53:05.307Z,12.24
2023-05-18T08:54:09.512Z,12.23
2023-05-18T08:55:13.084Z,12.14
2023-05-18T08:56:17.092Z,12.15
2023-05-18T08:57:22.818Z,12.12
2023-05-18T08:58:36.000Z,12.04
2023-05-18T08:59:42.938Z,12.18
2023-05-18T09:00:46.176Z,12.09
2023-05-18T09:01:49.368Z,12.03
2023-05-18T09:02:52.536Z,12.07
2023-05-18T09:03:59.920Z,12.09
2023-05-18T09:05:03.778Z,11.97
2023-05-18T09:06:07.752Z,11.99
2023-05-18T09:07:11.339Z,12.00
2023-05-18T09:08:14.476Z,11.89
2023-05-18T09:09:19.173Z,11.87
2023-05-18T09:10:24.481Z,11.85
2023-05-18T09:11:28.449Z,11.81
2023-05-18T09:12:33.050Z,11.94
2023-05-18T09:13:35.833Z,11.92
2023-05-18T09:14:41.722Z,11.93
2023-05-18T09:15:44.738Z,11.95
2023-05-18T09:16:47.826Z,11.98
2023-05-18T09:17:50.895Z,11.91
2023-05-18T09:18:54.263Z,11.96
2023-05-18T09:19:57.119Z,11.95
2023-05-18T09:21:00.051Z,11.91
2023-05-18T09:22:03.427Z,11.92
2023-05-18T09:23:06.288Z,11.95
2023-05-18T09:24:09.507Z,11.98
2023-05-18T09:25:12.455Z,12.02
2023-05-18T09:26:15.727Z,12.06
2023-05-18T09:27:19.064Z,12.03
2023-05-18T09:28:35.778Z,12.10
2023-05-18T09:30:11.262Z,12.03
2023-05-18T09:31:19.890Z,12.01
2023-05-18T09:32:27.288Z,12.09
2023-05-18T09:33:35.626Z,12.06
2023-05-18T09:34:42.924Z,12.10
2023-05-18T09:35:49.239Z,12.09
2023-05-18T09:36:58.012Z,12.06
2023-05-18T09:38:04.606Z,12.15
2023-05-18T09:39:10.353Z,12.12
2023-05-18T09:40:13.553Z,12.10
2023-05-18T09:41:18.320Z,12.01
2023-05-18T09:42:22.343Z,11.92
2023-05-18T09:43:27.697Z,11.94
2023-05-18T09:44:37.418Z,11.93
2023-05-18T09:45:49.156Z,12.02
2023-05-18T09:46:57.025Z,12.20
2023-05-18T09:47:59.935Z,12.23
2023-05-18T09:49:04.492Z,12.20
2023-05-18T09:50:08.212Z,12.22
2023-05-18T09:51:16.836Z,12.23
2023-05-18T09:52:19.990Z,12.23
2023-05-18T09:53:22.880Z,12.27
2023-05-18T09:54:26.462Z,12.25
2023-05-18T09:55:29.687Z,12.23
2023-05-18T09:56:36.120Z,12.25
2023-05-18T09:57:41.901Z,12.33
2023-05-18T09:58:46.019Z,12.33
2023-05-18T09:59:56.923Z,12.43
2023-05-18T10:01:02.431Z,12.40
2023-05-18T10:02:06.315Z,12.39
2023-05-18T10:03:18.557Z,12.43
2023-05-18T10:04:21.867Z,12.46
2023-05-18T10:05:27.777Z,12.43
2023-05-18T10:06:32.123Z,12.54
2023-05-18T10:07:36.441Z,12.56
2023-05-18T10:08:40.145Z,12.54
2023-05-18T10:09:46.897Z,12.55
2023-05-18T10:10:50.132Z,12.62
2023-05-18T10:11:53.016Z,12.69
2023-05-18T10:12:58.962Z,12.71
2023-05-18T10:14:02.318Z,12.69
2023-05-18T10:15:09.207Z,12.75
2023-05-18T10:16:12.282Z,12.82
2023-05-18T10:17:17.182Z,12.83
2023-05-18T10:18:24.720Z,12.78
2023-05-18T10:19:29.556Z,12.71
2023-05-18T10:20:33.167Z,12.78
2023-05-18T10:21:37.934Z,12.76
2023-05-18T10:22:41.817Z,12.81
2023-05-18T10:23:47.286Z,12.75
2023-05-18T10:24:53.070Z,12.71
2023-05-18T10:25:56.206Z,12.72
2023-05-18T10:27:01.951Z,12.69
2023-05-18T10:28:10.538Z,12.66
2023-05-18T10:29:13.998Z,12.62
2023-05-18T10:30:19.952Z,12.76
2023-05-18T10:31:24.847Z,12.74
2023-05-18T10:32:30.103Z,12.68
2023-05-18T10:33:34.131Z,12.73
2023-05-18T10:34:38.627Z,12.70
2023-05-18T10:35:42.458Z,12.73
2023-05-18T10:36:45.436Z,12.74
2023-05-18T10:37:49.314Z,12.71
2023-05-18T10:38:52.604Z,12.68
2023-05-18T10:39:56.697Z,12.72
2023-05-18T10:41:01.172Z,12.74
2023-05-18T10:42:08.987Z,12.77
2023-05-18T10:43:13.237Z,12.74
2023-05-18T10:44:16.532Z,12.71
2023-05-18T10:45:20.188Z,12.80
2023-05-18T10:46:27.148Z,12.82
2023-05-18T10:47:30.438Z,12.80
2023-05-18T10:48:39.036Z,12.83
2023-05-18T10:49:43.672Z,12.80
2023-05-18T10:50:50.050Z,12.84
2023-05-18T10:51:58.070Z,12.85
2023-05-18T10:53:01.570Z,12.90
2023-05-18T10:54:13.496Z,12.93
2023-05-18T10:55:16.798Z,12.94
2023-05-18T10:56:19.895Z,12.89
2023-05-18T10:57:23.099Z,12.93
2023-05-18T10:58:28.100Z,12.92
2023-05-18T10:59:31.325Z,12.93
2023-05-18T11:00:37.250Z,12.97
2023-05-18T11:01:42.515Z,13.10
2023-05-18T11:02:45.954Z,13.13
2023-05-18T11:03:49.524Z,13.16
2023-05-18T11:04:54.764Z,13.19
2023-05-18T11:06:07.057Z,13.14
2023-05-18T11:07:13.957Z,13.19
2023-05-18T11:08:27.065Z,13.16
2023-05-18T11:09:30.691Z,13.17
2023-05-18T11:10:41.627Z,13.17
2023-05-18T11:12:01.195Z,13.13
2023-05-18T11:13:04.430Z,13.28
2023-05-18T11:14:07.380Z,13.21
2023-05-18T11:15:10.906Z,13.21
2023-05-18T11:16:16.305Z,13.17
2023-05-18T11:17:23.934Z,13.13
2023-05-18T11:18:47.093Z,13.16
2023-05-18T11:20:08.193Z,13.07
2023-05-18T11:21:29.748Z,13.15
2023-05-18T11:22:57.604Z,13.13
2023-05-18T11:24:22.348Z,13.15
2023-05-18T11:25:27.786Z,13.17
2023-05-18T11:26:30.709Z,13.19
2023-05-18T11:27:34.374Z,13.18
2023-05-18T11:28:44.492Z,13.26
2023-05-18T11:29:57.856Z,13.28
2023-05-18T11:31:18.663Z,13.20
2023-05-18T11:32:34.312Z,13.12
2023-05-18T11:33:43.335Z,13.15
2023-05-18T11:34:50.413Z,13.22
2023-05-18T11:36:11.893Z,13.23
2023-05-18T11:37:38.843Z,13.30
2023-05-18T11:38:50.963Z,13.25
2023-05-18T11:39:59.756Z,13.34
2023-05-18T11:41:05.129Z,13.24
2023-05-18T11:42:09.759Z,13.17
2023-05-18T11:43:22.830Z,13.17
2023-05-18T11:44:28.668Z,13.18
2023-05-18T11:45:34.276Z,13.23
2023-05-18T11:46:38.069Z,13.18
2023-05-18T11:47:41.813Z,13.20
2023-05-18T11:48:45.329Z,13.19
2023-05-18T11:49:49.564Z,13.22
2023-05-18T11:50:56.465Z,13.23
2023-05-18T11:52:20.070Z,13.23
2023-05-18T11:53:25.535Z,13.29
2023-05-18T11:54:29.044Z,13.30
2023-05-18T11:55:39.328Z,13.28
2023-05-18T11:56:42.275Z,13.34
2023-05-18T11:57:48.139Z,13.28
2023-05-18T11:59:12.042Z,13.26
2023-05-18T12:00:16.274Z,13.28
2023-05-18T12:01:19.400Z,13.24
2023-05-18T12:02:26.888Z,13.22
2023-05-18T12:03:31.926Z,13.23
2023-05-18T12:04:35.533Z,13.32
2023-05-18T12:05:41.507Z,13.40
2023-05-18T12:06:44.374Z,13.34
2023-05-18T12:07:53.831Z,13.34
2023-05-18T12:08:56.997Z,13.29
2023-05-18T12:10:05.509Z,13.28
2023-05-18T12:11:08.577Z,13.28
2023-05-18T12:12:12.576Z,13.38
2023-05-18T12:13:17.849Z,13.46
2023-05-18T12:14:22.018Z,13.39
2023-05-18T12:15:25.400Z,13.31
2023-05-18T12:16:30.466Z,13.25
2023-05-18T12:17:44.667Z,13.28
2023-05-18T12:18:51.154Z,13.31
2023-05-18T12:19:54.250Z,13.29
2023-05-18T12:20:57.234Z,13.35
2023-05-18T12:22:01.064Z,13.26
2023-05-18T12:23:03.895Z,13.31
2023-05-18T12:24:07.201Z,13.27
2023-05-18T12:25:11.651Z,13.24
2023-05-18T12:26:14.811Z,13.24
2023-05-18T12:27:18.569Z,13.30
2023-05-18T12:28:21.651Z,13.43
2023-05-18T12:29:24.784Z,13.39
2023-05-18T12:30:35.869Z,13.36
2023-05-18T12:31:42.750Z,13.35
2023-05-18T12:32:53.850Z,13.45
2023-05-18T12:33:59.067Z,13.42
2023-05-18T12:35:02.835Z,13.45
2023-05-18T12:36:10.958Z,13.40
2023-05-18T12:37:14.114Z,13.41
2023-05-18T12:38:17.815Z,13.43
2023-05-18T12:39:21.644Z,13.38
2023-05-18T12:40:24.693Z,13.41
2023-05-18T12:41:28.076Z,13.38
2023-05-18T12:42:31.122Z,13.35
2023-05-18T12:43:35.168Z,13.44
2023-05-18T12:44:39.149Z,13.46
2023-05-18T12:45:44.915Z,13.40
2023-05-18T12:46:48.258Z,13.31
2023-05-18T12:47:54.901Z,13.28
2023-05-18T12:48:59.895Z,13.25
2023-05-18T12:50:03.821Z,13.24
2023-05-18T12:51:17.678Z,13.26
2023-05-18T12:52:22.103Z,13.28
2023-05-18T12:53:25.124Z,13.31
2023-05-18T12:54:30.178Z,13.27
2023-05-18T12:55:33.627Z,13.32
2023-05-18T12:57:06.501Z,13.34
2023-05-18T12:58:19.358Z,13.36
2023-05-18T12:59:22.973Z,13.34
2023-05-18T13:00:26.096Z,13.40
2023-05-18T13:01:29.262Z,13.38
2023-05-18T13:02:37.001Z,13.36
2023-05-18T13:03:41.382Z,13.43
2023-05-18T13:04:44.571Z,13.37
2023-05-18T13:06:04.830Z,13.36
2023-05-18T13:07:07.898Z,13.39
2023-05-18T13:08:16.103Z,13.42
2023-05-18T13:09:20.210Z,13.50
2023-05-18T13:10:23.210Z,13.65
2023-05-18T13:11:28.002Z,13.68
2023-05-18T13:12:43.427Z,13.62
2023-05-18T13:14:07.382Z,13.68
2023-05-18T13:15:12.104Z,13.56
2023-05-18T13:16:18.319Z,13.46
2023-05-18T13:17:24.189Z,13.37
2023-05-18T13:18:28.566Z,13.36
2023-05-18T13:19:34.795Z,13.37
2023-05-18T13:20:51.716Z,13.45
2023-05-18T13:21:59.182Z,13.47
2023-05-18T13:23:18.651Z,13.43
2023-05-18T13:24:21.670Z,13.42
2023-05-18T13:25:24.793Z,13.44
2023-05-18T13:26:27.905Z,13.53
2023-05-18T13:27:30.949Z,13.46
2023-05-18T13:28:33.928Z,13.56
2023-05-18T13:29:36.866Z,13.62
2023-05-18T13:30:42.514Z,13.59
2023-05-18T13:31:46.109Z,13.52
2023-05-18T13:32:49.979Z,13.42
2023-05-18T13:33:53.119Z,13.38
2023-05-18T13:34:56.204Z,13.40
2023-05-18T13:35:59.620Z,13.34
2023-05-18T13:37:02.669Z,13.32
2023-05-18T13:38:05.673Z,13.32
2023-05-18T13:39:08.654Z,13.34
2023-05-18T13:40:13.766Z,13.38
2023-05-18T13:41:16.865Z,13.43
2023-05-18T13:42:21.618Z,13.41
2023-05-18T13:43:24.531Z,13.39
2023-05-18T13:44:27.474Z,13.39
2023-05-18T13:45:31.427Z,13.42
2023-05-18T13:46:38.182Z,13.57
2023-05-18T13:47:41.569Z,13.56
2023-05-18T13:48:47.509Z,13.52
2023-05-18T13:49:50.524Z,13.53
2023-05-18T13:50:53.849Z,13.46
2023-05-18T13:51:59.736Z,13.47
2023-05-18T13:53:02.604Z,13.54
2023-05-18T13:54:05.854Z,13.55
2023-05-18T13:55:10.710Z,13.52
2023-05-18T13:56:15.718Z,13.55
2023-05-18T13:57:18.687Z,13.59
2023-05-18T13:58:21.742Z,13.59